sensor_id;sensor_type;location;lat;lon;timestamp;P1;durP1;ratioP1;P2;durP2;ratioP2
38611;SDS011;24368;52.156;20.788;2024-03-08T00:04:06;39.70;;;29.10;;
38611;SDS011;24368;52.156;20.788;2024-03-08T00:09:09;40.70;;;29.10;;
38611;SDS011;24368;52.156;20.788;2024-03-08T00:14:11;44.10;;;32.10;;
38611;SDS011;24368;52.156;20.788;2024-03-08T00:19:31;42.70;;;32.00;;
38611;SDS011;24368;52.156;20.788;2024-03-08T00:24:32;45.10;;;32.40;;
38611;SDS011;24368;52.156;20.788;2024-03-08T00:29:34;41.50;;;32.10;;
38611;SDS011;24368;52.156;20.788;2024-03-08T00:34:36;45.60;;;33.30;;
38611;SDS011;24368;52.156;20.788;2024-03-08T00:39:38;39.20;;;29.20;;
38611;SDS011;24368;52.156;20.788;2024-03-08T00:44:41;41.40;;;31.40;;
38611;SDS011;24368;52.156;20.788;2024-03-08T00:49:43;43.30;;;31.30;;
38611;SDS011;24368;52.156;20.788;2024-03-08T00:54:46;40.40;;;31.20;;
38611;SDS011;24368;52.156;20.788;2024-03-08T00:59:48;44.10;;;30.80;;
38611;SDS011;24368;52.156;20.788;2024-03-08T01:04:50;38.40;;;28.00;;
38611;SDS011;24368;52.156;20.788;2024-03-08T01:09:51;39.10;;;29.10;;
38611;SDS011;24368;52.156;20.788;2024-03-08T01:14:55;45.90;;;30.10;;
38611;SDS011;24368;52.156;20.788;2024-03-08T01:19:58;59.00;;;38.00;;
38611;SDS011;24368;52.156;20.788;2024-03-08T01:25:00;55.40;;;33.80;;
38611;SDS011;24368;52.156;20.788;2024-03-08T01:30:02;51.40;;;34.50;;
38611;SDS011;24368;52.156;20.788;2024-03-08T01:35:23;39.40;;;27.90;;
38611;SDS011;24368;52.156;20.788;2024-03-08T01:40:25;43.70;;;31.00;;
38611;SDS011;24368;52.156;20.788;2024-03-08T01:45:28;44.50;;;32.60;;
38611;SDS011;24368;52.156;20.788;2024-03-08T01:50:48;49.30;;;33.00;;
38611;SDS011;24368;52.156;20.788;2024-03-08T01:55:52;48.50;;;33.50;;
38611;SDS011;24368;52.156;20.788;2024-03-08T02:00:57;43.30;;;31.60;;
38611;SDS011;24368;52.156;20.788;2024-03-08T02:05:59;48.70;;;32.30;;
38611;SDS011;24368;52.156;20.788;2024-03-08T02:11:01;47.20;;;32.50;;
38611;SDS011;24368;52.156;20.788;2024-03-08T02:16:04;45.80;;;32.40;;
38611;SDS011;24368;52.156;20.788;2024-03-08T02:21:10;44.90;;;33.00;;
38611;SDS011;24368;52.156;20.788;2024-03-08T02:26:13;47.50;;;34.50;;
38611;SDS011;24368;52.156;20.788;2024-03-08T02:31:16;50.20;;;34.50;;
38611;SDS011;24368;52.156;20.788;2024-03-08T02:36:18;47.10;;;33.70;;
38611;SDS011;24368;52.156;20.788;2024-03-08T02:41:37;52.20;;;36.50;;
38611;SDS011;24368;52.156;20.788;2024-03-08T02:46:39;52.10;;;36.90;;
38611;SDS011;24368;52.156;20.788;2024-03-08T02:51:41;53.50;;;36.40;;
38611;SDS011;24368;52.156;20.788;2024-03-08T02:56:43;52.50;;;37.00;;
38611;SDS011;24368;52.156;20.788;2024-03-08T03:01:44;48.30;;;33.70;;
38611;SDS011;24368;52.156;20.788;2024-03-08T03:07:04;55.10;;;35.10;;
38611;SDS011;24368;52.156;20.788;2024-03-08T03:12:06;60.60;;;36.90;;
38611;SDS011;24368;52.156;20.788;2024-03-08T03:17:10;51.70;;;34.10;;
38611;SDS011;24368;52.156;20.788;2024-03-08T03:22:12;43.90;;;31.30;;
38611;SDS011;24368;52.156;20.788;2024-03-08T03:27:15;39.90;;;29.20;;
38611;SDS011;24368;52.156;20.788;2024-03-08T03:32:17;45.60;;;30.50;;
38611;SDS011;24368;52.156;20.788;2024-03-08T03:37:22;48.40;;;32.60;;
38611;SDS011;24368;52.156;20.788;2024-03-08T03:42:24;46.30;;;30.80;;
38611;SDS011;24368;52.156;20.788;2024-03-08T03:47:28;47.00;;;31.50;;
38611;SDS011;24368;52.156;20.788;2024-03-08T03:52:30;46.70;;;32.80;;
38611;SDS011;24368;52.156;20.788;2024-03-08T03:57:50;50.70;;;33.80;;
38611;SDS011;24368;52.156;20.788;2024-03-08T04:02:51;47.10;;;34.00;;
38611;SDS011;24368;52.156;20.788;2024-03-08T04:07:53;50.70;;;33.10;;
38611;SDS011;24368;52.156;20.788;2024-03-08T04:12:55;51.40;;;34.50;;
38611;SDS011;24368;52.156;20.788;2024-03-08T04:17:58;59.30;;;35.10;;
38611;SDS011;24368;52.156;20.788;2024-03-08T04:23:02;87.80;;;44.70;;
38611;SDS011;24368;52.156;20.788;2024-03-08T04:28:04;79.50;;;39.90;;
38611;SDS011;24368;52.156;20.788;2024-03-08T04:33:06;103.70;;;43.10;;
38611;SDS011;24368;52.156;20.788;2024-03-08T04:38:11;70.40;;;37.90;;
38611;SDS011;24368;52.156;20.788;2024-03-08T04:43:13;64.00;;;33.60;;
38611;SDS011;24368;52.156;20.788;2024-03-08T04:48:15;57.70;;;29.60;;
38611;SDS011;24368;52.156;20.788;2024-03-08T04:53:17;51.60;;;28.40;;
38611;SDS011;24368;52.156;20.788;2024-03-08T04:58:19;65.30;;;33.10;;
38611;SDS011;24368;52.156;20.788;2024-03-08T05:03:22;63.70;;;36.10;;
38611;SDS011;24368;52.156;20.788;2024-03-08T05:08:27;66.20;;;35.80;;
38611;SDS011;24368;52.156;20.788;2024-03-08T05:13:30;60.20;;;33.80;;
38611;SDS011;24368;52.156;20.788;2024-03-08T05:18:32;80.20;;;37.80;;
38611;SDS011;24368;52.156;20.788;2024-03-08T05:23:36;85.40;;;41.90;;
38611;SDS011;24368;52.156;20.788;2024-03-08T05:28:38;90.70;;;40.80;;
38611;SDS011;24368;52.156;20.788;2024-03-08T05:33:40;62.70;;;36.20;;
38611;SDS011;24368;52.156;20.788;2024-03-08T05:38:44;61.80;;;33.40;;
38611;SDS011;24368;52.156;20.788;2024-03-08T05:44:07;55.90;;;33.90;;
38611;SDS011;24368;52.156;20.788;2024-03-08T05:49:10;48.80;;;31.00;;
38611;SDS011;24368;52.156;20.788;2024-03-08T05:54:13;51.10;;;31.30;;
38611;SDS011;24368;52.156;20.788;2024-03-08T05:59:16;38.70;;;28.30;;
38611;SDS011;24368;52.156;20.788;2024-03-08T06:04:20;43.20;;;30.20;;
38611;SDS011;24368;52.156;20.788;2024-03-08T06:09:24;55.00;;;36.90;;
38611;SDS011;24368;52.156;20.788;2024-03-08T06:14:27;47.30;;;33.40;;
38611;SDS011;24368;52.156;20.788;2024-03-08T06:19:30;50.90;;;35.90;;
38611;SDS011;24368;52.156;20.788;2024-03-08T06:24:32;43.70;;;31.30;;
38611;SDS011;24368;52.156;20.788;2024-03-08T06:29:34;44.50;;;33.70;;
38611;SDS011;24368;52.156;20.788;2024-03-08T06:34:55;50.40;;;34.80;;
38611;SDS011;24368;52.156;20.788;2024-03-08T06:39:57;53.80;;;37.30;;
38611;SDS011;24368;52.156;20.788;2024-03-08T06:45:03;49.00;;;36.00;;
38611;SDS011;24368;52.156;20.788;2024-03-08T06:50:06;55.60;;;37.90;;
38611;SDS011;24368;52.156;20.788;2024-03-08T06:55:10;53.20;;;36.90;;
38611;SDS011;24368;52.156;20.788;2024-03-08T07:00:17;56.90;;;37.50;;
38611;SDS011;24368;52.156;20.788;2024-03-08T07:05:23;56.70;;;38.90;;
38611;SDS011;24368;52.156;20.788;2024-03-08T07:10:26;65.20;;;41.50;;
38611;SDS011;24368;52.156;20.788;2024-03-08T07:15:31;65.70;;;43.30;;
38611;SDS011;24368;52.156;20.788;2024-03-08T07:20:34;62.60;;;42.50;;
38611;SDS011;24368;52.156;20.788;2024-03-08T07:25:38;59.20;;;43.80;;
38611;SDS011;24368;52.156;20.788;2024-03-08T07:30:46;62.50;;;44.40;;
38611;SDS011;24368;52.156;20.788;2024-03-08T07:35:48;61.70;;;43.40;;
38611;SDS011;24368;52.156;20.788;2024-03-08T07:40:53;61.50;;;43.30;;
38611;SDS011;24368;52.156;20.788;2024-03-08T07:45:58;54.70;;;40.30;;
38611;SDS011;24368;52.156;20.788;2024-03-08T07:51:00;48.30;;;36.40;;
38611;SDS011;24368;52.156;20.788;2024-03-08T07:56:19;59.50;;;40.30;;
38611;SDS011;24368;52.156;20.788;2024-03-08T08:01:24;59.40;;;40.60;;
38611;SDS011;24368;52.156;20.788;2024-03-08T08:06:29;49.10;;;38.10;;
38611;SDS011;24368;52.156;20.788;2024-03-08T08:11:38;56.80;;;40.10;;
38611;SDS011;24368;52.156;20.788;2024-03-08T08:16:40;51.80;;;38.50;;
38611;SDS011;24368;52.156;20.788;2024-03-08T08:21:46;54.50;;;40.00;;
38611;SDS011;24368;52.156;20.788;2024-03-08T08:26:49;59.60;;;40.30;;
38611;SDS011;24368;52.156;20.788;2024-03-08T08:31:51;60.80;;;39.40;;
38611;SDS011;24368;52.156;20.788;2024-03-08T08:36:54;60.90;;;40.00;;
38611;SDS011;24368;52.156;20.788;2024-03-08T08:41:57;61.90;;;39.20;;
38611;SDS011;24368;52.156;20.788;2024-03-08T08:46:59;49.90;;;34.90;;
38611;SDS011;24368;52.156;20.788;2024-03-08T08:52:07;53.20;;;36.10;;
38611;SDS011;24368;52.156;20.788;2024-03-08T08:57:12;50.70;;;34.80;;
38611;SDS011;24368;52.156;20.788;2024-03-08T09:02:15;52.10;;;31.50;;
38611;SDS011;24368;52.156;20.788;2024-03-08T09:07:19;42.80;;;29.70;;
38611;SDS011;24368;52.156;20.788;2024-03-08T09:12:24;38.30;;;27.30;;
38611;SDS011;24368;52.156;20.788;2024-03-08T09:17:26;37.90;;;27.70;;
38611;SDS011;24368;52.156;20.788;2024-03-08T09:22:45;33.60;;;25.50;;
38611;SDS011;24368;52.156;20.788;2024-03-08T09:27:49;34.90;;;24.30;;
38611;SDS011;24368;52.156;20.788;2024-03-08T09:32:52;32.80;;;23.80;;
38611;SDS011;24368;52.156;20.788;2024-03-08T09:37:54;33.70;;;23.90;;
38611;SDS011;24368;52.156;20.788;2024-03-08T09:42:57;31.60;;;21.30;;
38611;SDS011;24368;52.156;20.788;2024-03-08T09:48:02;21.30;;;16.10;;
38611;SDS011;24368;52.156;20.788;2024-03-08T09:53:09;19.50;;;13.20;;
38611;SDS011;24368;52.156;20.788;2024-03-08T09:58:13;16.70;;;11.30;;
38611;SDS011;24368;52.156;20.788;2024-03-08T10:03:25;18.40;;;14.00;;
38611;SDS011;24368;52.156;20.788;2024-03-08T10:08:28;15.50;;;13.00;;
38611;SDS011;24368;52.156;20.788;2024-03-08T10:13:31;14.90;;;11.80;;
38611;SDS011;24368;52.156;20.788;2024-03-08T10:18:33;16.30;;;11.90;;
38611;SDS011;24368;52.156;20.788;2024-03-08T10:25:11;13.60;;;10.40;;
38611;SDS011;24368;52.156;20.788;2024-03-08T10:30:14;16.50;;;11.70;;
38611;SDS011;24368;52.156;20.788;2024-03-08T10:35:39;16.40;;;11.60;;
38611;SDS011;24368;52.156;20.788;2024-03-08T10:40:41;13.20;;;10.40;;
38611;SDS011;24368;52.156;20.788;2024-03-08T10:45:43;13.10;;;10.70;;
38611;SDS011;24368;52.156;20.788;2024-03-08T10:50:50;13.70;;;11.40;;
38611;SDS011;24368;52.156;20.788;2024-03-08T11:01:16;14.80;;;11.40;;
38611;SDS011;24368;52.156;20.788;2024-03-08T11:06:19;21.80;;;18.00;;
38611;SDS011;24368;52.156;20.788;2024-03-08T11:11:46;20.60;;;15.80;;
38611;SDS011;24368;52.156;20.788;2024-03-08T11:16:48;19.20;;;15.70;;
38611;SDS011;24368;52.156;20.788;2024-03-08T11:21:57;20.60;;;16.20;;
38611;SDS011;24368;52.156;20.788;2024-03-08T11:26:59;22.20;;;15.50;;
38611;SDS011;24368;52.156;20.788;2024-03-08T11:37:14;18.40;;;14.30;;
38611;SDS011;24368;52.156;20.788;2024-03-08T11:42:22;14.60;;;11.60;;
38611;SDS011;24368;52.156;20.788;2024-03-08T11:47:24;19.80;;;15.20;;
38611;SDS011;24368;52.156;20.788;2024-03-08T11:52:28;15.70;;;13.70;;
38611;SDS011;24368;52.156;20.788;2024-03-08T11:57:48;17.40;;;14.10;;
38611;SDS011;24368;52.156;20.788;2024-03-08T12:03:09;15.10;;;13.00;;
38611;SDS011;24368;52.156;20.788;2024-03-08T12:08:11;15.90;;;14.40;;
38611;SDS011;24368;52.156;20.788;2024-03-08T12:13:16;21.60;;;19.60;;
38611;SDS011;24368;52.156;20.788;2024-03-08T12:18:19;21.00;;;19.00;;
38611;SDS011;24368;52.156;20.788;2024-03-08T12:23:21;19.80;;;17.90;;
38611;SDS011;24368;52.156;20.788;2024-03-08T12:28:45;17.60;;;14.60;;
38611;SDS011;24368;52.156;20.788;2024-03-08T12:33:53;17.30;;;15.60;;
38611;SDS011;24368;52.156;20.788;2024-03-08T12:38:58;17.70;;;15.90;;
38611;SDS011;24368;52.156;20.788;2024-03-08T12:44:01;19.10;;;17.30;;
38611;SDS011;24368;52.156;20.788;2024-03-08T12:49:03;17.20;;;15.30;;
38611;SDS011;24368;52.156;20.788;2024-03-08T12:54:06;17.60;;;15.90;;
38611;SDS011;24368;52.156;20.788;2024-03-08T12:59:11;17.30;;;15.60;;
38611;SDS011;24368;52.156;20.788;2024-03-08T13:04:15;16.40;;;14.80;;
38611;SDS011;24368;52.156;20.788;2024-03-08T13:09:17;15.90;;;14.20;;
38611;SDS011;24368;52.156;20.788;2024-03-08T13:14:23;19.60;;;16.90;;
38611;SDS011;24368;52.156;20.788;2024-03-08T13:19:25;17.30;;;15.70;;
38611;SDS011;24368;52.156;20.788;2024-03-08T13:24:29;18.40;;;16.50;;
38611;SDS011;24368;52.156;20.788;2024-03-08T13:29:31;18.50;;;16.70;;
38611;SDS011;24368;52.156;20.788;2024-03-08T13:34:40;20.40;;;18.20;;
38611;SDS011;24368;52.156;20.788;2024-03-08T13:53:42;20.10;;;17.20;;
38611;SDS011;24368;52.156;20.788;2024-03-08T13:58:44;20.20;;;18.20;;
38611;SDS011;24368;52.156;20.788;2024-03-08T14:03:46;17.70;;;14.60;;
38611;SDS011;24368;52.156;20.788;2024-03-08T14:08:48;13.60;;;10.10;;
38611;SDS011;24368;52.156;20.788;2024-03-08T14:13:50;13.90;;;9.30;;
38611;SDS011;24368;52.156;20.788;2024-03-08T14:18:52;12.40;;;11.10;;
38611;SDS011;24368;52.156;20.788;2024-03-08T14:23:54;19.00;;;12.00;;
38611;SDS011;24368;52.156;20.788;2024-03-08T14:29:14;13.20;;;11.90;;
38611;SDS011;24368;52.156;20.788;2024-03-08T14:34:17;16.50;;;12.90;;
38611;SDS011;24368;52.156;20.788;2024-03-08T14:39:19;18.30;;;13.20;;
38611;SDS011;24368;52.156;20.788;2024-03-08T14:44:28;15.30;;;13.70;;
38611;SDS011;24368;52.156;20.788;2024-03-08T14:49:31;15.10;;;13.60;;
38611;SDS011;24368;52.156;20.788;2024-03-08T14:54:51;15.60;;;12.90;;
38611;SDS011;24368;52.156;20.788;2024-03-08T14:59:52;14.70;;;12.60;;
38611;SDS011;24368;52.156;20.788;2024-03-08T15:04:54;14.00;;;11.60;;
38611;SDS011;24368;52.156;20.788;2024-03-08T15:10:03;17.40;;;12.00;;
38611;SDS011;24368;52.156;20.788;2024-03-08T15:15:12;16.60;;;13.10;;
38611;SDS011;24368;52.156;20.788;2024-03-08T15:20:19;16.40;;;12.70;;
38611;SDS011;24368;52.156;20.788;2024-03-08T15:25:30;14.40;;;12.20;;
38611;SDS011;24368;52.156;20.788;2024-03-08T15:30:33;18.20;;;11.60;;
38611;SDS011;24368;52.156;20.788;2024-03-08T15:35:35;12.00;;;10.80;;
38611;SDS011;24368;52.156;20.788;2024-03-08T15:40:39;17.90;;;12.00;;
38611;SDS011;24368;52.156;20.788;2024-03-08T15:45:41;16.60;;;12.00;;
38611;SDS011;24368;52.156;20.788;2024-03-08T15:50:43;16.20;;;12.00;;
38611;SDS011;24368;52.156;20.788;2024-03-08T15:55:46;16.70;;;12.30;;
38611;SDS011;24368;52.156;20.788;2024-03-08T16:00:49;18.20;;;13.60;;
38611;SDS011;24368;52.156;20.788;2024-03-08T16:05:51;18.80;;;13.20;;
38611;SDS011;24368;52.156;20.788;2024-03-08T16:11:12;17.30;;;12.60;;
38611;SDS011;24368;52.156;20.788;2024-03-08T16:16:14;24.20;;;12.50;;
38611;SDS011;24368;52.156;20.788;2024-03-08T16:21:16;19.80;;;12.70;;
38611;SDS011;24368;52.156;20.788;2024-03-08T16:26:18;13.20;;;10.90;;
38611;SDS011;24368;52.156;20.788;2024-03-08T16:31:21;17.20;;;11.80;;
38611;SDS011;24368;52.156;20.788;2024-03-08T16:36:23;22.60;;;13.00;;
38611;SDS011;24368;52.156;20.788;2024-03-08T16:41:25;33.30;;;12.50;;
38611;SDS011;24368;52.156;20.788;2024-03-08T16:58:28;20.90;;;11.10;;
38611;SDS011;24368;52.156;20.788;2024-03-08T17:03:48;21.20;;;12.60;;
38611;SDS011;24368;52.156;20.788;2024-03-08T17:08:50;25.00;;;11.70;;
38611;SDS011;24368;52.156;20.788;2024-03-08T17:13:53;24.00;;;11.90;;
38611;SDS011;24368;52.156;20.788;2024-03-08T17:18:55;19.50;;;12.40;;
38611;SDS011;24368;52.156;20.788;2024-03-08T17:23:57;24.50;;;12.30;;
38611;SDS011;24368;52.156;20.788;2024-03-08T17:28:59;24.40;;;12.50;;
38611;SDS011;24368;52.156;20.788;2024-03-08T17:34:18;22.20;;;12.30;;
38611;SDS011;24368;52.156;20.788;2024-03-08T17:39:24;30.30;;;13.60;;
38611;SDS011;24368;52.156;20.788;2024-03-08T17:44:34;21.10;;;11.10;;
38611;SDS011;24368;52.156;20.788;2024-03-08T17:49:42;19.70;;;12.30;;
38611;SDS011;24368;52.156;20.788;2024-03-08T17:54:47;39.70;;;14.60;;
38611;SDS011;24368;52.156;20.788;2024-03-08T17:59:49;28.40;;;15.20;;
38611;SDS011;24368;52.156;20.788;2024-03-08T18:04:51;41.20;;;26.20;;
38611;SDS011;24368;52.156;20.788;2024-03-08T18:09:52;42.80;;;29.00;;
38611;SDS011;24368;52.156;20.788;2024-03-08T18:14:54;37.10;;;27.60;;
38611;SDS011;24368;52.156;20.788;2024-03-08T18:19:56;37.30;;;24.80;;
38611;SDS011;24368;52.156;20.788;2024-03-08T18:25:16;46.50;;;28.40;;
38611;SDS011;24368;52.156;20.788;2024-03-08T18:30:21;49.20;;;31.20;;
38611;SDS011;24368;52.156;20.788;2024-03-08T18:35:23;59.80;;;28.80;;
38611;SDS011;24368;52.156;20.788;2024-03-08T18:40:25;47.90;;;28.30;;
38611;SDS011;24368;52.156;20.788;2024-03-08T18:45:28;42.50;;;27.30;;
38611;SDS011;24368;52.156;20.788;2024-03-08T18:50:30;44.50;;;31.50;;
38611;SDS011;24368;52.156;20.788;2024-03-08T18:55:32;82.00;;;43.90;;
38611;SDS011;24368;52.156;20.788;2024-03-08T19:00:36;70.70;;;47.10;;
38611;SDS011;24368;52.156;20.788;2024-03-08T19:05:38;73.90;;;49.30;;
38611;SDS011;24368;52.156;20.788;2024-03-08T19:10:59;93.30;;;59.30;;
38611;SDS011;24368;52.156;20.788;2024-03-08T19:16:01;87.00;;;55.50;;
38611;SDS011;24368;52.156;20.788;2024-03-08T19:21:04;64.90;;;43.40;;
38611;SDS011;24368;52.156;20.788;2024-03-08T19:26:06;64.60;;;40.00;;
38611;SDS011;24368;52.156;20.788;2024-03-08T19:31:31;65.20;;;41.60;;
38611;SDS011;24368;52.156;20.788;2024-03-08T19:36:33;70.30;;;45.60;;
38611;SDS011;24368;52.156;20.788;2024-03-08T19:41:34;73.70;;;47.40;;
38611;SDS011;24368;52.156;20.788;2024-03-08T19:46:36;98.40;;;65.80;;
38611;SDS011;24368;52.156;20.788;2024-03-08T19:51:47;133.20;;;91.80;;
38611;SDS011;24368;52.156;20.788;2024-03-08T19:56:51;124.90;;;86.90;;
38611;SDS011;24368;52.156;20.788;2024-03-08T20:01:56;106.80;;;76.80;;
38611;SDS011;24368;52.156;20.788;2024-03-08T20:06:58;113.10;;;82.20;;
38611;SDS011;24368;52.156;20.788;2024-03-08T20:12:00;107.10;;;82.90;;
38611;SDS011;24368;52.156;20.788;2024-03-08T20:17:02;115.30;;;81.70;;
38611;SDS011;24368;52.156;20.788;2024-03-08T20:22:05;104.70;;;72.30;;
38611;SDS011;24368;52.156;20.788;2024-03-08T20:27:08;99.30;;;68.80;;
38611;SDS011;24368;52.156;20.788;2024-03-08T20:32:10;88.50;;;65.00;;
38611;SDS011;24368;52.156;20.788;2024-03-08T20:37:13;91.70;;;70.20;;
38611;SDS011;24368;52.156;20.788;2024-03-08T20:42:15;110.30;;;83.50;;
38611;SDS011;24368;52.156;20.788;2024-03-08T20:47:19;110.70;;;83.40;;
38611;SDS011;24368;52.156;20.788;2024-03-08T20:52:40;101.00;;;71.80;;
38611;SDS011;24368;52.156;20.788;2024-03-08T20:57:43;79.80;;;57.60;;
38611;SDS011;24368;52.156;20.788;2024-03-08T21:02:51;84.40;;;59.40;;
38611;SDS011;24368;52.156;20.788;2024-03-08T21:08:11;97.90;;;69.90;;
38611;SDS011;24368;52.156;20.788;2024-03-08T21:13:14;101.00;;;72.70;;
38611;SDS011;24368;52.156;20.788;2024-03-08T21:18:16;88.50;;;62.10;;
38611;SDS011;24368;52.156;20.788;2024-03-08T21:23:18;73.30;;;48.90;;
38611;SDS011;24368;52.156;20.788;2024-03-08T21:28:20;63.30;;;43.50;;
38611;SDS011;24368;52.156;20.788;2024-03-08T21:33:31;62.70;;;42.10;;
38611;SDS011;24368;52.156;20.788;2024-03-08T21:38:33;49.50;;;34.00;;
38611;SDS011;24368;52.156;20.788;2024-03-08T21:43:35;43.00;;;32.80;;
38611;SDS011;24368;52.156;20.788;2024-03-08T21:48:55;52.50;;;36.30;;
38611;SDS011;24368;52.156;20.788;2024-03-08T21:53:58;53.10;;;37.60;;
38611;SDS011;24368;52.156;20.788;2024-03-08T21:59:01;61.00;;;37.60;;
38611;SDS011;24368;52.156;20.788;2024-03-08T22:04:05;61.80;;;41.50;;
38611;SDS011;24368;52.156;20.788;2024-03-08T22:09:07;59.00;;;42.10;;
38611;SDS011;24368;52.156;20.788;2024-03-08T22:14:09;64.10;;;45.20;;
38611;SDS011;24368;52.156;20.788;2024-03-08T22:19:11;63.80;;;44.60;;
38611;SDS011;24368;52.156;20.788;2024-03-08T22:24:14;64.20;;;44.40;;
38611;SDS011;24368;52.156;20.788;2024-03-08T22:29:18;65.80;;;42.30;;
38611;SDS011;24368;52.156;20.788;2024-03-08T22:34:21;57.70;;;40.00;;
38611;SDS011;24368;52.156;20.788;2024-03-08T22:39:24;48.60;;;34.50;;
38611;SDS011;24368;52.156;20.788;2024-03-08T22:44:26;51.10;;;36.00;;
38611;SDS011;24368;52.156;20.788;2024-03-08T22:49:28;45.60;;;32.90;;
